Terminal Aerodrome Forecast
Issued by NWS Amarillo, TX

Home | Current Version | Previous Version | Text Only | Print | Product List | Glossary On
Versions: 1 2 3 4 5 6 7 8 9 10 11 12 13 14
620
FTUS44 KAMA 130524
TAFGUY
TAF
KGUY 130524Z 1306/1406 26011KT P6SM SKC
     FM131500 36019G29KT P6SM SKC
     FM132300 36008KT P6SM SCT300=

USA.gov is the U.S. government's official web portal to all federal, state and local government web resources and services.